BIENTÔT MET'MAP
version 2.0 !

Prévue avant fin octobre,
la nouvelle version sera
plus belle, plus complète
et hébergée sur un serveur
3 fois plus puissant...
et toujours gratuite !


Pas compatible ?
Essayez la version Mobile !

SE CONNECTER : | S'inscrire | Disclaimer | Découvrir Orbifly |
Code OACI :

TAF - LIPC Cervia AFB Ravenna - 07 Dec 2019 02:18 UTC
Data Sources :     NOAA   


- Altitude de l'aérodrome : 18 ft
- Pas de NOTAMs connus.


LIPC - Cervia AFB Ravenna

Dernier METAR connu : 2015/08/11 07:55 LIPC 110755Z 30009KT CAVOK 25/22 Q1012
TAF TAF LIPC
Valide du 07 à 00h jusqu'au 07 à 09h UTC


062300Z 0700/0709 28006KT 8000 SCT030
TEMPO 0700/0708 3000 BR
PROB30
TEMPO 0702/0706 1500 BR

Source NOAA


MET'MAP, la Météo Aéronautique d'un coup d'oeil ! - Copyright ORBIFLY Décembre 2007

Développement & Programmation : Alexandra Zaïnal
Co-Développement : Marc-Olivier Méhu
Soutien technique & logistique : Manuel Goepfert
Conception & Financement : Baudouin d'Aumeries